Airfield :
LOGIN :

Register | Disclaimer

   EN    FR    IT 

 










Legend :    VFR   Marginal VFR   IFR   Intensive IFR   Very Intensive IFR
Visi :
Ceiling :
>= 8 km
>= 3000ft
5 to 8 km
1000 to 3000 ft
1500m to 5 km
500 to 1000 ft
800 to 1500m
200 to 500 ft
< 800m
< 200 ft
Symbols :   Thunderstorms  Fog  Heavy snow  Heavy precipitations  Wind > 20 kt
SIGMETs :     Misc.  Thunderstorms  Icing  Turbulence  Mountain Waves  Volcanic Ashes






- Airport Elevation : 141 ft
- IATA code : SKS


EKSP - Srydstrup Vojens

CURRENT METAR :
  • 230950Z 28009KT 6000 -RA FEW004 SCT006 BKN045 14/14 Q1012 TEMPO 4000 SHRA BKN008

EXPIRED METARs :
  • 230920Z 26009KT 6000 -RA FEW004 SCT006 BKN040 14/14 Q1011 TEMPO 4000 SHRA BKN008
  • 230850Z 27007KT 5000 -RA FEW004 BKN007 BKN040 14/13 Q1011 TEMPO 4000 SHRA
  • 230820Z 27008KT 5000 -RA FEW004 SCT012 BKN020 14/13 Q1011 TEMPO 4000 SHRA BKN008
  • 230804Z 29006KT 7000 -RA FEW005 SCT017 BKN035 14/13 Q1011 RERA TEMPO 4000 SHRA BKN008
  • 230720Z 28011KT 6000 -RA FEW005 BKN030 13/13 Q1011 RERA TEMPO 1800 SHRA BKN008
  • 230650Z 29009KT 5000 RA FEW005 BKN025 BKN035 13/13 Q1010 TEMPO 1800 SHRA BKN008
  • 230620Z 27009KT 5000 RA FEW005 BKN020 BKN035 13/13 Q1010 TEMPO 1800 SHRA BKN008
  • 230550Z 26008KT 6000 -RA FEW003 SCT008 BKN015 14/13 Q1010 TEMPO 1800 SHRA BKN008
  • 230520Z 25007KT 4500 -RA BR FEW003 SCT008 BKN012 14/13 Q1010 TEMPO 1800 SHRA BKN008

TAF TAF EKSP
Valid from the 23 at 09:00 until the 24 at 09:00 UTC


230803Z 2309/2409 25008KT 6000 RA BKN030
TEMPO 2309/2312 4000 SHRA BR BKN008 BKN030CB
BECMG 2312/2314 9999 NSW
TEMPO 2314/2320 7000 -RA BKN012
TEMPO 2320/2406 3000 BR BKN008



MET'MAP, your aeronautical weather chart ! - Copyright ORBIFLY December 2007 - Disclaimer

ORBIFLY MET'MAP TEAM :

Programming & Development : Alexandra Zaïnal
Original concept : Baudouin d'Aumeries
Technical & hardware support : Manuel Goepfert
Assistance : Marc-Olivier Méhu




SOURCES & CREDITS :

   NOAA